Time;durP1;ratioP1;P1;durP2;ratioP2;P2;SDS_P1;SDS_P2;PMS_P1;PMS_P2;Temp;Humidity;BMP_temperature;BMP_pressure;BME280_temperature;BME280_humidity;BME280_pressure;Samples;Min_cycle;Max_cycle;Signal;HPM_P1;HPM_P2
2022/12/30 00:00:40;;;;;;;;;;;;;;;;;;1883160;28;7046;-63
2022/12/30 00:01:38;;;;;;;;;;;;;;;;;;1885131;28;7284;-63
2022/12/30 00:02:36;;;;;;;;;;;;;;;;;;1886670;28;7018;-63
2022/12/30 00:03:34;;;;;;;;;;;;;;;;;;1884909;28;7084;-62
2022/12/30 00:04:31;;;;;;;;;;;;;;;;;;1882424;28;8212;-63
2022/12/30 00:05:29;;;;;;;;;;;;;;;;;;1882154;28;7886;-62
2022/12/30 00:06:26;;;;;;;;;;;;;;;;;;1884809;28;8062;-63
2022/12/30 00:07:24;;;;;;;;;;;;;;;;;;1884859;28;7977;-64
2022/12/30 00:09:37;;;;;;;;;;;;;;;;;;1885264;28;7093;-63
2022/12/30 00:10:34;;;;;;;;;;;;;;;;;;1875052;28;7189;-62
2022/12/30 00:11:33;;;;;;;;;;;;;;;;;;1875634;28;7013;-62
2022/12/30 00:33:43;;;;;;;;;;;;;;;;;;1873667;28;7076;-63
2022/12/30 00:34:40;;;;;;;;;;;;;;;;;;1881989;28;7137;-63
2022/12/30 00:35:39;;;;;;;;;;;;;;;;;;1883505;28;7089;-64
2022/12/30 00:36:37;;;;;;;;;;;;;;;;;;1882899;28;7010;-62
2022/12/30 00:37:35;;;;;;;;;;;;;;;;;;1883124;28;7135;-62
2022/12/30 00:38:32;;;;;;;;;;;;;;;;;;1885100;28;7184;-62
2022/12/30 00:39:30;;;;;;;;;;;;;;;;;;1881767;28;7101;-61
2022/12/30 00:40:27;;;;;;;;;;;;;;;;;;1886182;28;8139;-62
2022/12/30 00:43:56;;;;;;;;;;;;;;;;;;1873777;28;8023;-63
2022/12/30 00:44:53;;;;;;;;;;;;;;;;;;1874348;28;7109;-62
2022/12/30 00:45:53;;;;;;;;;;;;;;;;;;1874182;28;7130;-64
2022/12/30 00:46:51;;;;;;;;;;;;;;;;;;1874266;28;7002;-62
2022/12/30 00:47:48;;;;;;;;;;;;;;;;;;1874735;28;7014;-62
2022/12/30 00:56:22;;;;;;;;;;;;;;;;;;1874316;28;8051;-62
2022/12/30 00:57:19;;;;;;;;;;;;;;;;;;1874434;28;8058;-63
2022/12/30 00:58:17;;;;;;;;;;;;;;;;;;1874509;28;7014;-63
2022/12/30 00:59:14;;;;;;;;;;;;;;;;;;1874721;28;7129;-63
2022/12/30 01:00:12;;;;;;;;;;;;;;;;;;1874335;28;7092;-63
2022/12/30 01:01:10;;;;;;;;;;;;;;;;;;1875565;28;7197;-63
2022/12/30 01:02:07;;;;;;;;;;;;;;;;;;1868716;28;7097;-63
2022/12/30 01:03:05;;;;;;;;;;;;;;;;;;1869545;28;7123;-64
2022/12/30 01:04:03;;;;;;;;;;;;;;;;;;1872845;28;7583;-62
2022/12/30 01:05:00;;;;;;;;;;;;;;;;;;1874106;28;7109;-63
2022/12/30 01:05:57;;;;;;;;;;;;;;;;;;1874494;28;7096;-62
2022/12/30 01:06:56;;;;;;;;;;;;;;;;;;1873582;28;7034;-63
2022/12/30 01:07:53;;;;;;;;;;;;;;;;;;1874537;28;7006;-62
2022/12/30 01:08:50;;;;;;;;;;;;;;;;;;1873675;28;7037;-64
2022/12/30 01:09:48;;;;;;;;;;;;;;;;;;1874298;28;7101;-64
2022/12/30 01:10:45;;;;;;;;;;;;;;;;;;1875145;28;8036;-63
2022/12/30 01:11:43;;;;;;;;;;;;;;;;;;1874980;28;7009;-62
2022/12/30 01:12:40;;;;;;;;;;;;;;;;;;1874119;28;7113;-64
2022/12/30 01:13:37;;;;;;;;;;;;;;;;;;1874546;28;8032;-62
2022/12/30 01:14:42;;;;;;;;;;;;;;;;;;1874592;28;7010;-63
2022/12/30 01:15:39;;;;;;;;;;;;;;;;;;1874361;28;8042;-64
2022/12/30 01:16:37;;;;;;;;;;;;;;;;;;1874469;28;7093;-62
2022/12/30 01:17:34;;;;;;;;;;;;;;;;;;1874747;28;7047;-63
2022/12/30 01:18:32;;;;;;;;;;;;;;;;;;1874338;28;7653;-63
2022/12/30 01:19:29;;;;;;;;;;;;;;;;;;1873437;28;8644;-64
2022/12/30 01:20:27;;;;;;;;;;;;;;;;;;1874642;28;7043;-64
2022/12/30 01:21:25;;;;;;;;;;;;;;;;;;1874274;28;8610;-61
2022/12/30 01:22:23;;;;;;;;;;;;;;;;;;1874285;28;7982;-62
2022/12/30 01:23:20;;;;;;;;;;;;;;;;;;1874284;28;7013;-63
2022/12/30 01:24:17;;;;;;;;;;;;;;;;;;1874298;28;7097;-62
2022/12/30 01:25:15;;;;;;;;;;;;;;;;;;1874372;28;7117;-63
2022/12/30 01:26:12;;;;;;;;;;;;;;;;;;1873625;28;8115;-63
2022/12/30 01:27:10;;;;;;;;;;;;;;;;;;1874031;28;7093;-64
2022/12/30 01:28:07;;;;;;;;;;;;;;;;;;1874774;28;8012;-63
2022/12/30 01:29:05;;;;;;;;;;;;;;;;;;1874133;28;7034;-63
2022/12/30 01:30:03;;;;;;;;;;;;;;;;;;1874469;28;7109;-62
2022/12/30 01:31:04;;;;;;;;;;;;;;;;;;1874698;28;7313;-63
2022/12/30 01:32:02;;;;;;;;;;;;;;;;;;1873293;28;8092;-63
2022/12/30 01:32:59;;;;;;;;;;;;;;;;;;1873880;28;7010;-63
2022/12/30 01:33:56;;;;;;;;;;;;;;;;;;1874503;28;7045;-64
2022/12/30 01:34:54;;;;;;;;;;;;;;;;;;1874073;28;7060;-62
2022/12/30 01:35:51;;;;;;;;;;;;;;;;;;1874342;28;7010;-63
2022/12/30 01:36:52;;;;;;;;;;;;;;;;;;1872339;28;7084;-63
2022/12/30 01:37:50;;;;;;;;;;;;;;;;;;1870843;28;7042;-61
2022/12/30 01:38:47;;;;;;;;;;;;;;;;;;1874002;28;8088;-62
2022/12/30 01:39:45;;;;;;;;;;;;;;;;;;1873101;28;7168;-63
2022/12/30 01:40:43;;;;;;;;;;;;;;;;;;1873590;28;7026;-61
2022/12/30 01:41:40;;;;;;;;;;;;;;;;;;1874717;28;7104;-63
2022/12/30 01:42:39;;;;;;;;;;;;;;;;;;1873629;28;7110;-64
2022/12/30 01:44:02;;;;;;;;;;;;;;;;;;1881038;28;7014;-63
2022/12/30 01:45:03;;;;;;;;;;;;;;;;;;1880204;28;7357;-64
2022/12/30 01:46:04;;;;;;;;;;;;;;;;;;1880252;28;7434;-63
2022/12/30 01:47:03;;;;;;;;;;;;;;;;;;1881935;28;7013;-63
2022/12/30 01:48:25;;;;;;;;;;;;;;;;;;1881464;28;7304;-63
2022/12/30 01:49:22;;;;;;;;;;;;;;;;;;1877446;28;7025;-64
2022/12/30 01:50:58;;;;;;;;;;;;;;;;;;1881612;28;7146;-63
2022/12/30 01:51:55;;;;;;;;;;;;;;;;;;1858392;29;8017;-62
2022/12/30 01:53:13;;;;;;;;;;;;;;;;;;1858716;29;7006;-62
2022/12/30 01:54:10;;;;;;;;;;;;;;;;;;1858890;29;8005;-62
2022/12/30 01:55:13;;;;;;;;;;;;;;;;;;1859141;29;7042;-63
2022/12/30 01:56:16;;;;;;;;;;;;;;;;;;1858132;29;7318;-63
2022/12/30 01:57:16;;;;;;;;;;;;;;;;;;1857866;29;7089;-63
2022/12/30 01:58:17;;;;;;;;;;;;;;;;;;1876215;28;7158;-63
2022/12/30 01:59:18;;;;;;;;;;;;;;;;;;1874155;28;7132;-61
2022/12/30 02:00:16;;;;;;;;;;;;;;;;;;1881786;28;7220;-64
2022/12/30 02:01:14;;;;;;;;;;;;;;;;;;1881180;28;8120;-63
2022/12/30 02:02:11;;;;;;;;;;;;;;;;;;1881437;28;7005;-64
2022/12/30 02:03:09;;;;;;;;;;;;;;;;;;1881046;28;7036;-63
2022/12/30 02:04:09;;;;;;;;;;;;;;;;;;1882057;28;7204;-62
2022/12/30 02:05:07;;;;;;;;;;;;;;;;;;1880160;28;8228;-63
2022/12/30 02:06:06;;;;;;;;;;;;;;;;;;1884388;28;7073;-62
2022/12/30 02:07:15;;;;;;;;;;;;;;;;;;1881302;28;7002;-63
2022/12/30 02:08:14;;;;;;;;;;;;;;;;;;1881692;28;7093;-63
2022/12/30 02:09:11;;;;;;;;;;;;;;;;;;1880645;28;7125;-63
2022/12/30 02:10:09;;;;;;;;;;;;;;;;;;1880898;28;7093;-62
2022/12/30 02:11:06;;;;;;;;;;;;;;;;;;1881191;28;7006;-64
2022/12/30 02:12:05;;;;;;;;;;;;;;;;;;1880008;28;7014;-63
2022/12/30 02:13:03;;;;;;;;;;;;;;;;;;1880468;28;7010;-62
2022/12/30 02:14:02;;;;;;;;;;;;;;;;;;1875753;28;7010;-64
2022/12/30 02:15:06;;;;;;;;;;;;;;;;;;1874900;28;8016;-63
2022/12/30 02:16:03;;;;;;;;;;;;;;;;;;1880903;28;7141;-62
2022/12/30 02:17:16;;;;;;;;;;;;;;;;;;1882043;28;7038;-63
2022/12/30 02:18:22;;;;;;;;;;;;;;;;;;1881820;28;7010;-63
2022/12/30 02:19:40;;;;;;;;;;;;;;;;;;1880873;28;8726;-63
2022/12/30 02:20:58;;;;;;;;;;;;;;;;;;1881172;28;7096;-64
2022/12/30 02:22:14;;;;;;;;;;;;;;;;;;1874827;28;7809;-62
2022/12/30 02:23:11;;;;;;;;;;;;;;;;;;1875865;28;7018;-64
2022/12/30 02:24:14;;;;;;;;;;;;;;;;;;1881384;28;8023;-62
2022/12/30 02:25:30;;;;;;;;;;;;;;;;;;1880396;28;7092;-63
2022/12/30 02:26:46;;;;;;;;;;;;;;;;;;1881269;28;7010;-62
2022/12/30 02:27:43;;;;;;;;;;;;;;;;;;1881887;28;7998;-64
2022/12/30 02:28:54;;;;;;;;;;;;;;;;;;1880127;28;7046;-64
2022/12/30 02:30:09;;;;;;;;;;;;;;;;;;1874183;28;7133;-63
2022/12/30 02:31:19;;;;;;;;;;;;;;;;;;1875033;28;7118;-64
2022/12/30 02:32:35;;;;;;;;;;;;;;;;;;1875228;28;7112;-64
2022/12/30 02:33:46;;;;;;;;;;;;;;;;;;1875744;28;8792;-62
2022/12/30 02:35:02;;;;;;;;;;;;;;;;;;1881391;28;7096;-64
2022/12/30 02:36:05;;;;;;;;;;;;;;;;;;1881636;28;7134;-62
2022/12/30 02:37:03;;;;;;;;;;;;;;;;;;1882183;28;8040;-64
2022/12/30 02:38:09;;;;;;;;;;;;;;;;;;1880962;28;7038;-62
2022/12/30 02:39:21;;;;;;;;;;;;;;;;;;1882171;28;7108;-62
2022/12/30 02:44:36;;;;;;;;;;;;;;;;;;1881030;28;7018;-62
2022/12/30 02:44:50;;;;;;;;;;;;;;;;;;1881160;28;7924;-64
2022/12/30 02:45:52;;;;;;;;;;;;;;;;;;1881633;28;8090;-64
2022/12/30 02:46:58;;;;;;;;;;;;;;;;;;1882536;28;7021;-63
2022/12/30 02:48:01;;;;;;;;;;;;;;;;;;1881343;28;7010;-63
2022/12/30 02:49:01;;;;;;;;;;;;;;;;;;1883342;28;7174;-63
2022/12/30 02:52:43;;;;;;;;;;;;;;;;;;1882118;28;7155;-64
2022/12/30 02:53:41;;;;;;;;;;;;;;;;;;1882153;28;7124;-64
2022/12/30 02:54:39;;;;;;;;;;;;;;;;;;1883469;28;7097;-62
2022/12/30 02:55:37;;;;;;;;;;;;;;;;;;1883156;28;7155;-64
2022/12/30 02:56:34;;;;;;;;;;;;;;;;;;1883380;28;7070;-64
2022/12/30 02:57:33;;;;;;;;;;;;;;;;;;1881467;28;7038;-64
2022/12/30 02:58:33;;;;;;;;;;;;;;;;;;1882144;28;7152;-64
2022/12/30 03:04:15;;;;;;;;;;;;;;;;;;1882987;28;7050;-64
2022/12/30 03:05:15;;;;;;;;;;;;;;;;;;1882761;28;7101;-62
2022/12/30 03:06:25;;;;;;;;;;;;;;;;;;1883096;28;7320;-63
2022/12/30 03:07:42;;;;;;;;;;;;;;;;;;1883304;28;7104;-63
2022/12/30 03:08:40;;;;;;;;;;;;;;;;;;1882547;28;7054;-63
2022/12/30 03:09:37;;;;;;;;;;;;;;;;;;1883236;28;7033;-63
2022/12/30 03:12:02;;;;;;;;;;;;;;;;;;1882587;28;7009;-62
2022/12/30 03:13:00;;;;;;;;;;;;;;;;;;1882967;28;7005;-64
2022/12/30 03:14:06;;;;;;;;;;;;;;;;;;1882089;28;7989;-64
2022/12/30 03:15:09;;;;;;;;;;;;;;;;;;1883002;28;8079;-64
2022/12/30 03:16:15;;;;;;;;;;;;;;;;;;1881985;28;8210;-62
2022/12/30 03:17:20;;;;;;;;;;;;;;;;;;1881512;28;7018;-62
2022/12/30 03:18:19;;;;;;;;;;;;;;;;;;1883013;28;7002;-64
2022/12/30 03:19:20;;;;;;;;;;;;;;;;;;1882419;28;7312;-64
2022/12/30 03:20:20;;;;;;;;;;;;;;;;;;1882506;28;7440;-62
2022/12/30 03:21:20;;;;;;;;;;;;;;;;;;1882615;28;7093;-63
2022/12/30 03:27:27;;;;;;;;;;;;;;;;;;1883371;28;7018;-63
2022/12/30 03:28:26;;;;;;;;;;;;;;;;;;1883198;28;8482;-63
2022/12/30 03:29:27;;;;;;;;;;;;;;;;;;1882743;28;7025;-64
2022/12/30 03:30:25;;;;;;;;;;;;;;;;;;1882527;28;7046;-64
2022/12/30 03:31:22;;;;;;;;;;;;;;;;;;1881504;28;7042;-62
2022/12/30 03:32:21;;;;;;;;;;;;;;;;;;1879975;28;7097;-62
2022/12/30 03:33:19;;;;;;;;;;;;;;;;;;1879341;28;7014;-62
2022/12/30 03:34:16;;;;;;;;;;;;;;;;;;1881769;28;7006;-63
2022/12/30 03:35:14;;;;;;;;;;;;;;;;;;1883223;28;7026;-64
2022/12/30 03:36:16;;;;;;;;;;;;;;;;;;1882244;28;7092;-61
2022/12/30 03:37:22;;;;;;;;;;;;;;;;;;1882905;28;7056;-62
2022/12/30 03:38:26;;;;;;;;;;;;;;;;;;1880687;28;7002;-63
2022/12/30 03:39:35;;;;;;;;;;;;;;;;;;1882223;28;8000;-64
2022/12/30 03:40:38;;;;;;;;;;;;;;;;;;1882354;28;7005;-63
2022/12/30 03:41:36;;;;;;;;;;;;;;;;;;1882047;28;7097;-62
2022/12/30 03:42:33;;;;;;;;;;;;;;;;;;1882817;28;7038;-63
2022/12/30 03:43:32;;;;;;;;;;;;;;;;;;1883492;28;8056;-62
2022/12/30 03:44:31;;;;;;;;;;;;;;;;;;1889993;28;7149;-63
2022/12/30 03:45:29;;;;;;;;;;;;;;;;;;1885847;28;7046;-63
2022/12/30 03:46:33;;;;;;;;;;;;;;;;;;1890794;28;7191;-61
2022/12/30 03:47:30;;;;;;;;;;;;;;;;;;1885223;28;7021;-64
2022/12/30 03:48:28;;;;;;;;;;;;;;;;;;1889132;28;8024;-63
2022/12/30 03:49:25;;;;;;;;;;;;;;;;;;1884908;28;7182;-62
2022/12/30 03:50:23;;;;;;;;;;;;;;;;;;1887106;28;8044;-62
2022/12/30 03:51:20;;;;;;;;;;;;;;;;;;1883960;28;8041;-62
2022/12/30 03:52:21;;;;;;;;;;;;;;;;;;1882013;28;7092;-63
2022/12/30 03:53:18;;;;;;;;;;;;;;;;;;1877409;28;7046;-62
2022/12/30 03:54:15;;;;;;;;;;;;;;;;;;1882148;28;7089;-61
2022/12/30 03:55:13;;;;;;;;;;;;;;;;;;1887477;28;7006;-62
2022/12/30 03:56:10;;;;;;;;;;;;;;;;;;1885547;28;7096;-62
2022/12/30 03:57:08;;;;;;;;;;;;;;;;;;1886764;28;7006;-63
2022/12/30 03:58:05;;;;;;;;;;;;;;;;;;1884951;28;7674;-62
2022/12/30 03:59:02;;;;;;;;;;;;;;;;;;1885633;28;7197;-62
2022/12/30 04:00:00;;;;;;;;;;;;;;;;;;1883885;28;7120;-63
2022/12/30 04:00:57;;;;;;;;;;;;;;;;;;1882314;28;7248;-64
2022/12/30 04:01:55;;;;;;;;;;;;;;;;;;1885124;28;8045;-63
2022/12/30 04:02:52;;;;;;;;;;;;;;;;;;1889464;28;7005;-63
2022/12/30 04:03:50;;;;;;;;;;;;;;;;;;1880876;28;7134;-62
2022/12/30 04:04:47;;;;;;;;;;;;;;;;;;1882677;28;7042;-62
2022/12/30 04:05:45;;;;;;;;;;;;;;;;;;1888333;28;7049;-63
2022/12/30 04:06:42;;;;;;;;;;;;;;;;;;1889259;28;7149;-61
2022/12/30 04:07:40;;;;;;;;;;;;;;;;;;1886888;28;8038;-62
2022/12/30 04:08:38;;;;;;;;;;;;;;;;;;1882400;28;7088;-63
2022/12/30 04:09:35;;;;;;;;;;;;;;;;;;1884082;28;7006;-62
2022/12/30 04:10:33;;;;;;;;;;;;;;;;;;1885868;28;7112;-64
2022/12/30 04:11:30;;;;;;;;;;;;;;;;;;1889753;28;7089;-63
2022/12/30 04:12:28;;;;;;;;;;;;;;;;;;1887226;28;7117;-61
2022/12/30 04:13:25;;;;;;;;;;;;;;;;;;1882657;28;7125;-62
2022/12/30 04:14:23;;;;;;;;;;;;;;;;;;1882430;28;7089;-63
2022/12/30 04:15:20;;;;;;;;;;;;;;;;;;1881788;28;7010;-62
2022/12/30 04:16:17;;;;;;;;;;;;;;;;;;1887310;28;7033;-62
2022/12/30 04:17:15;;;;;;;;;;;;;;;;;;1886847;28;7034;-64
2022/12/30 04:18:12;;;;;;;;;;;;;;;;;;1883727;28;7025;-64
2022/12/30 04:19:10;;;;;;;;;;;;;;;;;;1889238;28;7038;-64
2022/12/30 04:20:07;;;;;;;;;;;;;;;;;;1885617;28;7009;-62
2022/12/30 04:21:05;;;;;;;;;;;;;;;;;;1885704;28;7009;-61
2022/12/30 04:22:02;;;;;;;;;;;;;;;;;;1889994;28;7308;-63
2022/12/30 04:22:59;;;;;;;;;;;;;;;;;;1884177;28;7010;-62
2022/12/30 04:23:57;;;;;;;;;;;;;;;;;;1886861;28;7137;-62
2022/12/30 04:24:54;;;;;;;;;;;;;;;;;;1884963;28;7131;-63
2022/12/30 04:25:54;;;;;;;;;;;;;;;;;;1885400;28;7054;-62
2022/12/30 04:26:51;;;;;;;;;;;;;;;;;;1885312;28;8015;-63
2022/12/30 04:27:49;;;;;;;;;;;;;;;;;;1882722;28;7006;-62
2022/12/30 04:28:46;;;;;;;;;;;;;;;;;;1882593;28;7006;-63
2022/12/30 04:29:43;;;;;;;;;;;;;;;;;;1882403;28;7005;-64
2022/12/30 04:30:41;;;;;;;;;;;;;;;;;;1882080;28;7343;-62
2022/12/30 04:31:39;;;;;;;;;;;;;;;;;;1883016;28;7093;-64
2022/12/30 04:32:36;;;;;;;;;;;;;;;;;;1882498;28;8120;-64
2022/12/30 04:33:34;;;;;;;;;;;;;;;;;;1880782;28;7917;-62
2022/12/30 04:34:31;;;;;;;;;;;;;;;;;;1888953;28;8003;-63
2022/12/30 04:35:29;;;;;;;;;;;;;;;;;;1889313;28;7096;-64
2022/12/30 04:36:27;;;;;;;;;;;;;;;;;;1889329;28;7009;-63
2022/12/30 04:37:24;;;;;;;;;;;;;;;;;;1889354;28;8304;-64
2022/12/30 04:38:22;;;;;;;;;;;;;;;;;;1885499;28;7096;-64
2022/12/30 04:39:20;;;;;;;;;;;;;;;;;;1881223;28;7089;-63
2022/12/30 04:40:18;;;;;;;;;;;;;;;;;;1887666;28;7042;-62
2022/12/30 04:41:17;;;;;;;;;;;;;;;;;;1889405;28;7145;-62
2022/12/30 04:42:15;;;;;;;;;;;;;;;;;;1886437;28;7010;-64
2022/12/30 04:43:12;;;;;;;;;;;;;;;;;;1889116;28;7131;-63
2022/12/30 04:44:10;;;;;;;;;;;;;;;;;;1889778;28;7606;-62
2022/12/30 04:45:07;;;;;;;;;;;;;;;;;;1880318;28;7133;-63
2022/12/30 04:46:05;;;;;;;;;;;;;;;;;;1882407;28;7017;-63
2022/12/30 04:47:02;;;;;;;;;;;;;;;;;;1882678;28;7320;-62
2022/12/30 04:48:00;;;;;;;;;;;;;;;;;;1879721;28;7387;-64
2022/12/30 04:48:57;;;;;;;;;;;;;;;;;;1882278;28;7372;-62
2022/12/30 04:49:55;;;;;;;;;;;;;;;;;;1888592;28;7132;-62
2022/12/30 04:50:52;;;;;;;;;;;;;;;;;;1887130;28;7134;-64
2022/12/30 04:51:51;;;;;;;;;;;;;;;;;;1887363;28;8019;-62
2022/12/30 04:52:48;;;;;;;;;;;;;;;;;;1888807;28;7399;-63
2022/12/30 04:53:45;;;;;;;;;;;;;;;;;;1881882;28;7010;-64
2022/12/30 04:54:43;;;;;;;;;;;;;;;;;;1882226;28;8871;-63
2022/12/30 04:55:40;;;;;;;;;;;;;;;;;;1886763;28;8010;-62
2022/12/30 04:56:38;;;;;;;;;;;;;;;;;;1886641;28;7144;-64
2022/12/30 04:57:35;;;;;;;;;;;;;;;;;;1881627;28;7121;-63
2022/12/30 04:58:32;;;;;;;;;;;;;;;;;;1881195;28;7010;-62
2022/12/30 04:59:30;;;;;;;;;;;;;;;;;;1883958;28;7029;-62
2022/12/30 05:00:27;;;;;;;;;;;;;;;;;;1887321;28;8001;-63
2022/12/30 05:01:26;;;;;;;;;;;;;;;;;;1885427;28;7005;-62
2022/12/30 05:02:24;;;;;;;;;;;;;;;;;;1887061;28;7116;-62
2022/12/30 05:03:21;;;;;;;;;;;;;;;;;;1885797;28;7321;-64
2022/12/30 05:04:19;;;;;;;;;;;;;;;;;;1886918;28;7013;-64
2022/12/30 05:05:16;;;;;;;;;;;;;;;;;;1882102;28;7112;-63
2022/12/30 05:06:14;;;;;;;;;;;;;;;;;;1885309;28;7013;-64
2022/12/30 05:07:11;;;;;;;;;;;;;;;;;;1888983;28;7097;-63
2022/12/30 05:08:09;;;;;;;;;;;;;;;;;;1885810;28;7038;-62
2022/12/30 05:09:06;;;;;;;;;;;;;;;;;;1884478;28;7077;-63
2022/12/30 05:10:04;;;;;;;;;;;;;;;;;;1880919;28;7313;-62
2022/12/30 05:11:01;;;;;;;;;;;;;;;;;;1881560;28;7039;-63
2022/12/30 05:11:59;;;;;;;;;;;;;;;;;;1881612;28;7959;-63
2022/12/30 05:12:56;;;;;;;;;;;;;;;;;;1881840;28;7002;-63
2022/12/30 05:13:54;;;;;;;;;;;;;;;;;;1882219;28;7097;-64
2022/12/30 05:14:51;;;;;;;;;;;;;;;;;;1883837;28;7085;-63
2022/12/30 05:15:48;;;;;;;;;;;;;;;;;;1883893;28;7977;-63
2022/12/30 05:16:46;;;;;;;;;;;;;;;;;;1880730;28;7014;-62
2022/12/30 05:17:43;;;;;;;;;;;;;;;;;;1879109;28;7088;-62
2022/12/30 05:18:41;;;;;;;;;;;;;;;;;;1880302;28;7054;-64
2022/12/30 05:19:38;;;;;;;;;;;;;;;;;;1882968;28;7085;-63
2022/12/30 05:20:35;;;;;;;;;;;;;;;;;;1886343;28;8204;-63
2022/12/30 05:21:33;;;;;;;;;;;;;;;;;;1885990;28;8210;-62
2022/12/30 05:22:30;;;;;;;;;;;;;;;;;;1889485;28;7009;-63
2022/12/30 05:26:14;;;;;;;;;;;;;;;;;;1884250;28;7009;-63
2022/12/30 05:27:12;;;;;;;;;;;;;;;;;;1887986;28;7010;-61
2022/12/30 05:28:09;;;;;;;;;;;;;;;;;;1882544;28;8226;-62
2022/12/30 05:29:07;;;;;;;;;;;;;;;;;;1882146;28;7092;-62
2022/12/30 05:30:04;;;;;;;;;;;;;;;;;;1883291;28;7046;-61
2022/12/30 05:31:02;;;;;;;;;;;;;;;;;;1881649;28;7183;-63
2022/12/30 05:32:00;;;;;;;;;;;;;;;;;;1885360;28;7046;-63
2022/12/30 05:32:58;;;;;;;;;;;;;;;;;;1885282;28;7014;-62
2022/12/30 05:33:55;;;;;;;;;;;;;;;;;;1884933;28;8243;-63
2022/12/30 05:34:53;;;;;;;;;;;;;;;;;;1885394;28;8026;-63
2022/12/30 05:35:50;;;;;;;;;;;;;;;;;;1886621;28;7092;-63
2022/12/30 05:36:47;;;;;;;;;;;;;;;;;;1881816;28;7014;-62
2022/12/30 05:37:45;;;;;;;;;;;;;;;;;;1888532;28;7010;-63
2022/12/30 05:38:42;;;;;;;;;;;;;;;;;;1880198;28;7465;-61
2022/12/30 05:39:40;;;;;;;;;;;;;;;;;;1882065;28;8020;-64
2022/12/30 05:40:37;;;;;;;;;;;;;;;;;;1881849;28;7013;-63
2022/12/30 05:41:34;;;;;;;;;;;;;;;;;;1882171;28;7994;-63
2022/12/30 05:42:32;;;;;;;;;;;;;;;;;;1882842;28;7044;-63
2022/12/30 05:43:29;;;;;;;;;;;;;;;;;;1888394;28;7112;-61
2022/12/30 05:44:27;;;;;;;;;;;;;;;;;;1885329;28;7042;-64
2022/12/30 05:45:24;;;;;;;;;;;;;;;;;;1881757;28;7046;-62
2022/12/30 05:46:21;;;;;;;;;;;;;;;;;;1882083;28;7399;-64
2022/12/30 05:47:19;;;;;;;;;;;;;;;;;;1882652;28;7014;-64
2022/12/30 05:48:16;;;;;;;;;;;;;;;;;;1882182;28;7746;-65
2022/12/30 05:49:14;;;;;;;;;;;;;;;;;;1882202;28;7017;-63
2022/12/30 05:50:11;;;;;;;;;;;;;;;;;;1883863;28;7148;-64
2022/12/30 05:51:08;;;;;;;;;;;;;;;;;;1883613;28;8028;-63
2022/12/30 05:52:06;;;;;;;;;;;;;;;;;;1882103;28;8034;-64
2022/12/30 05:53:03;;;;;;;;;;;;;;;;;;1882249;28;8014;-64
2022/12/30 05:54:01;;;;;;;;;;;;;;;;;;1882089;28;7132;-62
2022/12/30 05:54:58;;;;;;;;;;;;;;;;;;1881983;28;8022;-62
2022/12/30 05:55:56;;;;;;;;;;;;;;;;;;1874202;28;8025;-62
2022/12/30 05:56:53;;;;;;;;;;;;;;;;;;1873722;28;7010;-63
2022/12/30 05:57:50;;;;;;;;;;;;;;;;;;1880933;28;7196;-63
2022/12/30 05:58:48;;;;;;;;;;;;;;;;;;1883875;28;7010;-62
2022/12/30 05:59:45;;;;;;;;;;;;;;;;;;1884697;28;8155;-62
2022/12/30 06:00:42;;;;;;;;;;;;;;;;;;1887068;28;7117;-61
2022/12/30 06:01:40;;;;;;;;;;;;;;;;;;1886080;28;7009;-64
2022/12/30 06:02:37;;;;;;;;;;;;;;;;;;1885298;28;7130;-61
2022/12/30 06:03:37;;;;;;;;;;;;;;;;;;1882046;28;7120;-62
2022/12/30 06:04:35;;;;;;;;;;;;;;;;;;1886275;28;7009;-63
2022/12/30 06:05:32;;;;;;;;;;;;;;;;;;1885982;28;8000;-63
2022/12/30 06:06:29;;;;;;;;;;;;;;;;;;1887584;28;7046;-62
2022/12/30 06:07:27;;;;;;;;;;;;;;;;;;1882467;28;7010;-62
2022/12/30 06:08:24;;;;;;;;;;;;;;;;;;1882252;28;7873;-63
2022/12/30 06:09:22;;;;;;;;;;;;;;;;;;1886482;28;7133;-64
2022/12/30 06:10:19;;;;;;;;;;;;;;;;;;1888100;28;7010;-63
2022/12/30 06:11:17;;;;;;;;;;;;;;;;;;1873996;28;7141;-61
2022/12/30 06:12:14;;;;;;;;;;;;;;;;;;1874364;28;7006;-64
2022/12/30 06:13:11;;;;;;;;;;;;;;;;;;1886604;28;7009;-63
2022/12/30 06:14:10;;;;;;;;;;;;;;;;;;1888323;28;8042;-63
2022/12/30 06:15:08;;;;;;;;;;;;;;;;;;1887747;28;7009;-62
2022/12/30 06:16:05;;;;;;;;;;;;;;;;;;1889001;28;7214;-63
2022/12/30 06:17:03;;;;;;;;;;;;;;;;;;1884429;28;7005;-63
2022/12/30 06:18:00;;;;;;;;;;;;;;;;;;1884435;28;7031;-62
2022/12/30 06:18:58;;;;;;;;;;;;;;;;;;1888814;28;7124;-62
2022/12/30 06:19:55;;;;;;;;;;;;;;;;;;1887558;28;7092;-67
2022/12/30 06:20:53;;;;;;;;;;;;;;;;;;1887484;28;7130;-63
2022/12/30 06:21:51;;;;;;;;;;;;;;;;;;1882970;28;7006;-62
2022/12/30 06:22:48;;;;;;;;;;;;;;;;;;1883528;28;7050;-64
2022/12/30 06:23:46;;;;;;;;;;;;;;;;;;1885576;28;7307;-64
2022/12/30 06:24:43;;;;;;;;;;;;;;;;;;1883592;28;7360;-63
2022/12/30 06:25:40;;;;;;;;;;;;;;;;;;1887845;28;7010;-63
2022/12/30 06:26:38;;;;;;;;;;;;;;;;;;1890565;28;7006;-61
2022/12/30 06:27:35;;;;;;;;;;;;;;;;;;1891286;28;7225;-62
2022/12/30 06:28:33;;;;;;;;;;;;;;;;;;1889895;28;7625;-62
2022/12/30 06:29:30;;;;;;;;;;;;;;;;;;1885961;28;8986;-63
2022/12/30 06:30:28;;;;;;;;;;;;;;;;;;1890623;28;7006;-62
2022/12/30 06:31:29;;;;;;;;;;;;;;;;;;1890359;28;7009;-64
2022/12/30 06:32:26;;;;;;;;;;;;;;;;;;1883621;28;7082;-63
2022/12/30 06:33:24;;;;;;;;;;;;;;;;;;1881838;28;7005;-63
2022/12/30 06:34:21;;;;;;;;;;;;;;;;;;1885278;28;7097;-64
2022/12/30 06:35:19;;;;;;;;;;;;;;;;;;1891097;28;7042;-63
2022/12/30 06:36:16;;;;;;;;;;;;;;;;;;1887549;28;7006;-62
2022/12/30 06:37:14;;;;;;;;;;;;;;;;;;1883828;28;7025;-62
2022/12/30 06:38:11;;;;;;;;;;;;;;;;;;1890668;28;7010;-63
2022/12/30 06:39:08;;;;;;;;;;;;;;;;;;1890884;28;7059;-63
2022/12/30 06:40:06;;;;;;;;;;;;;;;;;;1883708;28;7022;-63
2022/12/30 06:41:04;;;;;;;;;;;;;;;;;;1883885;28;7042;-62
2022/12/30 06:42:01;;;;;;;;;;;;;;;;;;1886339;28;7148;-63
2022/12/30 06:43:00;;;;;;;;;;;;;;;;;;1883366;28;7317;-63
2022/12/30 06:43:57;;;;;;;;;;;;;;;;;;1883451;28;7927;-64
2022/12/30 06:44:54;;;;;;;;;;;;;;;;;;1882060;28;7039;-61
2022/12/30 06:45:52;;;;;;;;;;;;;;;;;;1883549;28;7014;-62
2022/12/30 06:46:49;;;;;;;;;;;;;;;;;;1883281;28;7009;-64
2022/12/30 06:47:47;;;;;;;;;;;;;;;;;;1880762;28;7010;-63
2022/12/30 06:48:44;;;;;;;;;;;;;;;;;;1883450;28;7754;-62
2022/12/30 06:49:41;;;;;;;;;;;;;;;;;;1883332;28;7005;-63
2022/12/30 06:50:39;;;;;;;;;;;;;;;;;;1883071;28;7046;-63
2022/12/30 06:51:36;;;;;;;;;;;;;;;;;;1883688;28;7022;-62
2022/12/30 06:52:33;;;;;;;;;;;;;;;;;;1883403;28;7029;-63
2022/12/30 06:53:31;;;;;;;;;;;;;;;;;;1881591;28;8581;-61
2022/12/30 06:54:28;;;;;;;;;;;;;;;;;;1883425;28;8024;-61
2022/12/30 06:55:26;;;;;;;;;;;;;;;;;;1883271;28;8086;-64
2022/12/30 06:56:30;;;;;;;;;;;;;;;;;;1882626;28;7130;-62
2022/12/30 06:57:28;;;;;;;;;;;;;;;;;;1882746;28;7046;-62
2022/12/30 06:58:27;;;;;;;;;;;;;;;;;;1883465;28;8301;-63
2022/12/30 06:59:25;;;;;;;;;;;;;;;;;;1882911;28;7131;-64
2022/12/30 07:00:22;;;;;;;;;;;;;;;;;;1883585;28;7096;-62
2022/12/30 07:01:19;;;;;;;;;;;;;;;;;;1883610;28;8112;-62
2022/12/30 07:02:17;;;;;;;;;;;;;;;;;;1884367;28;7035;-63
2022/12/30 07:03:14;;;;;;;;;;;;;;;;;;1882135;28;7109;-62
2022/12/30 07:04:12;;;;;;;;;;;;;;;;;;1883418;28;7018;-62
2022/12/30 07:05:09;;;;;;;;;;;;;;;;;;1882091;28;7022;-63
2022/12/30 07:06:07;;;;;;;;;;;;;;;;;;1883285;28;7045;-63
2022/12/30 07:07:04;;;;;;;;;;;;;;;;;;1883403;28;7010;-64
2022/12/30 07:08:02;;;;;;;;;;;;;;;;;;1883361;28;7096;-64
2022/12/30 07:08:59;;;;;;;;;;;;;;;;;;1883702;28;7018;-61
2022/12/30 07:09:56;;;;;;;;;;;;;;;;;;1882875;28;7014;-63
2022/12/30 07:10:54;;;;;;;;;;;;;;;;;;1883305;28;7998;-62
2022/12/30 07:11:51;;;;;;;;;;;;;;;;;;1883462;28;7041;-63
2022/12/30 07:12:49;;;;;;;;;;;;;;;;;;1883552;28;7325;-62
2022/12/30 07:13:46;;;;;;;;;;;;;;;;;;1883005;28;7103;-63
2022/12/30 07:14:44;;;;;;;;;;;;;;;;;;1882735;28;7010;-62
2022/12/30 07:15:41;;;;;;;;;;;;;;;;;;1883445;28;7134;-63
2022/12/30 07:16:39;;;;;;;;;;;;;;;;;;1883656;28;8327;-63
2022/12/30 07:17:37;;;;;;;;;;;;;;;;;;1879154;28;7093;-62
2022/12/30 07:18:34;;;;;;;;;;;;;;;;;;1881983;28;8045;-62
2022/12/30 07:19:31;;;;;;;;;;;;;;;;;;1882151;28;8028;-62
2022/12/30 07:20:29;;;;;;;;;;;;;;;;;;1882896;28;7332;-63
2022/12/30 07:21:26;;;;;;;;;;;;;;;;;;1881569;28;7453;-63
2022/12/30 07:22:24;;;;;;;;;;;;;;;;;;1883011;28;7054;-62
2022/12/30 07:23:22;;;;;;;;;;;;;;;;;;1881117;28;7097;-63
2022/12/30 07:24:19;;;;;;;;;;;;;;;;;;1882750;28;7126;-62
2022/12/30 07:25:17;;;;;;;;;;;;;;;;;;1883045;28;7042;-62
2022/12/30 07:26:14;;;;;;;;;;;;;;;;;;1882811;28;7026;-62
2022/12/30 07:27:12;;;;;;;;;;;;;;;;;;1883042;28;7723;-62
2022/12/30 07:28:10;;;;;;;;;;;;;;;;;;1881711;28;8052;-63
2022/12/30 07:29:07;;;;;;;;;;;;;;;;;;1883003;28;7093;-63
2022/12/30 07:30:05;;;;;;;;;;;;;;;;;;1881104;28;7292;-63
2022/12/30 07:31:02;;;;;;;;;;;;;;;;;;1876758;28;7152;-62
2022/12/30 07:32:00;;;;;;;;;;;;;;;;;;1881608;28;8017;-62
2022/12/30 07:32:58;;;;;;;;;;;;;;;;;;1882032;28;7070;-62
2022/12/30 07:33:55;;;;;;;;;;;;;;;;;;1881936;28;7010;-63
2022/12/30 07:34:53;;;;;;;;;;;;;;;;;;1882728;28;7131;-62
2022/12/30 07:35:50;;;;;;;;;;;;;;;;;;1883532;28;7101;-62
2022/12/30 07:36:47;;;;;;;;;;;;;;;;;;1882806;28;7127;-63
2022/12/30 07:37:45;;;;;;;;;;;;;;;;;;1882280;28;7137;-62
2022/12/30 07:38:42;;;;;;;;;;;;;;;;;;1882568;28;7365;-63
2022/12/30 07:39:40;;;;;;;;;;;;;;;;;;1882800;28;7038;-62
2022/12/30 07:40:37;;;;;;;;;;;;;;;;;;1883385;28;7002;-63
2022/12/30 07:41:35;;;;;;;;;;;;;;;;;;1883291;28;7050;-63
2022/12/30 07:42:32;;;;;;;;;;;;;;;;;;1882632;28;8005;-63